createdAt,value
2019-05-26T00:01:25.674Z,100415.94
2019-05-26T00:03:00.394Z,100415.05
2019-05-26T00:04:35.366Z,100415.05
2019-05-26T00:06:10.251Z,100406.66
2019-05-26T00:07:45.584Z,100408.50
2019-05-26T00:09:20.312Z,100402.56
2019-05-26T00:10:55.323Z,100394.69
2019-05-26T00:12:30.037Z,100396.47
2019-05-26T00:14:05.051Z,100400.17
2019-05-26T00:15:39.405Z,100400.77
2019-05-26T00:17:14.734Z,100394.69
2019-05-26T00:18:49.083Z,100392.72
2019-05-26T00:20:24.099Z,100392.99
2019-05-26T00:21:58.787Z,100393.40
2019-05-26T00:23:33.741Z,100392.30
2019-05-26T00:25:08.970Z,100391.16
2019-05-26T00:26:44.278Z,100390.45
2019-05-26T00:28:18.629Z,100394.25
2019-05-26T00:29:53.879Z,100390.17
2019-05-26T00:31:28.222Z,100388.36
2019-05-26T00:33:03.467Z,100387.52
2019-05-26T00:34:37.887Z,100386.00
2019-05-26T00:36:13.113Z,100382.78
2019-05-26T00:37:50.005Z,100373.05
2019-05-26T00:39:24.154Z,100373.30
2019-05-26T00:40:59.624Z,100371.98
2019-05-26T00:42:35.194Z,100373.58
2019-05-26T00:44:09.629Z,100378.40
2019-05-26T00:45:44.705Z,100374.32
2019-05-26T00:47:19.139Z,100381.34
2019-05-26T00:48:54.483Z,100374.09
2019-05-26T00:50:29.301Z,100368.22
2019-05-26T00:52:04.306Z,100367.50
2019-05-26T00:53:38.659Z,100364.77
2019-05-26T00:55:14.065Z,100362.17
2019-05-26T00:56:48.410Z,100367.67
2019-05-26T00:58:23.346Z,100368.07
2019-05-26T00:59:57.725Z,100356.48
2019-05-26T01:01:32.957Z,100360.91
2019-05-26T01:03:07.407Z,100348.34
2019-05-26T01:04:42.812Z,100350.56
2019-05-26T01:06:17.521Z,100347.80
2019-05-26T01:08:05.184Z,100352.14
2019-05-26T01:09:28.614Z,100345.91
2019-05-26T01:11:03.562Z,100349.58
2019-05-26T01:12:37.993Z,100362.27
2019-05-26T01:14:12.959Z,100365.53
2019-05-26T01:15:47.323Z,100353.62
2019-05-26T01:17:22.259Z,100358.38
2019-05-26T01:18:57.034Z,100361.48
2019-05-26T01:20:31.969Z,100361.07
2019-05-26T01:22:06.365Z,100363.09
2019-05-26T01:23:41.309Z,100363.88
2019-05-26T01:25:15.762Z,100362.95
2019-05-26T01:26:50.707Z,100363.00
2019-05-26T01:28:25.371Z,100366.27
2019-05-26T01:30:00.335Z,100364.59
2019-05-26T01:31:34.844Z,100357.46
2019-05-26T01:33:09.953Z,100358.72
2019-05-26T01:34:44.731Z,100354.95
2019-05-26T01:36:19.813Z,100356.48
2019-05-26T01:37:54.415Z,100352.41
2019-05-26T01:39:29.359Z,100350.00
2019-05-26T01:41:03.739Z,100354.56
2019-05-26T01:42:39.078Z,100353.00
2019-05-26T01:44:13.439Z,100355.83
2019-05-26T01:45:48.831Z,100356.86
2019-05-26T01:47:23.278Z,100365.64
2019-05-26T01:48:59.283Z,100362.52
2019-05-26T01:50:33.920Z,100369.96
2019-05-26T01:52:09.041Z,100370.59
2019-05-26T01:53:43.866Z,100362.79
2019-05-26T01:55:18.796Z,100363.47
2019-05-26T01:56:53.507Z,100367.19
2019-05-26T01:58:28.442Z,100375.17
2019-05-26T02:00:02.838Z,100376.95
2019-05-26T02:01:37.780Z,100378.77
2019-05-26T02:03:12.595Z,100377.60
2019-05-26T02:04:48.239Z,100375.91
2019-05-26T02:06:22.691Z,100375.22
2019-05-26T02:07:57.733Z,100373.15
2019-05-26T02:09:32.502Z,100373.22
2019-05-26T02:11:07.548Z,100372.97
2019-05-26T02:12:42.254Z,100374.52
2019-05-26T02:14:17.790Z,100364.14
2019-05-26T02:15:52.186Z,100367.73
2019-05-26T02:17:27.461Z,100361.12
2019-05-26T02:19:01.858Z,100365.86
2019-05-26T02:20:36.888Z,100356.56
2019-05-26T02:22:11.361Z,100358.30
2019-05-26T02:23:46.626Z,100359.39
2019-05-26T02:25:21.749Z,100364.74
2019-05-26T02:26:56.681Z,100353.39
2019-05-26T02:28:31.043Z,100362.44
2019-05-26T02:30:06.401Z,100366.08
2019-05-26T02:31:40.839Z,100362.30
2019-05-26T02:33:15.846Z,100363.48
2019-05-26T02:34:50.205Z,100361.84
2019-05-26T02:36:25.179Z,100363.20
2019-05-26T02:38:00.040Z,100366.19
2019-05-26T02:39:35.254Z,100367.77
2019-05-26T02:41:09.918Z,100370.39
2019-05-26T02:42:44.878Z,100365.59
2019-05-26T02:44:19.547Z,100360.67
2019-05-26T02:45:54.761Z,100362.01
2019-05-26T02:47:29.230Z,100364.42
2019-05-26T02:49:04.371Z,100360.10
2019-05-26T02:50:38.850Z,100360.52
2019-05-26T02:52:13.820Z,100358.49
2019-05-26T02:53:48.638Z,100357.86
2019-05-26T02:55:24.817Z,100354.73
2019-05-26T02:56:59.255Z,100353.05
2019-05-26T02:58:34.190Z,100350.05
2019-05-26T03:00:11.121Z,100355.02
2019-05-26T03:02:02.131Z,100356.17
2019-05-26T03:03:22.378Z,100352.42
2019-05-26T03:04:57.769Z,100348.05
2019-05-26T03:06:33.826Z,100344.06
2019-05-26T03:08:09.631Z,100342.57
2019-05-26T03:09:45.831Z,100351.03
2019-05-26T03:11:21.110Z,100341.93
2019-05-26T03:12:57.012Z,100341.28
2019-05-26T03:14:34.401Z,100340.75
2019-05-26T03:16:11.265Z,100346.41
2019-05-26T03:17:48.596Z,100343.17
2019-05-26T03:19:26.058Z,100338.28
2019-05-26T03:21:03.785Z,100345.26
2019-05-26T03:22:41.503Z,100342.69
2019-05-26T03:24:18.792Z,100351.54
2019-05-26T03:25:53.150Z,100352.10
2019-05-26T03:27:28.080Z,100349.12
2019-05-26T03:29:02.740Z,100350.92
2019-05-26T03:30:38.149Z,100348.83
2019-05-26T03:32:12.904Z,100347.92
2019-05-26T03:33:48.163Z,100351.16
2019-05-26T03:35:22.571Z,100352.59
2019-05-26T03:36:57.619Z,100356.87
2019-05-26T03:38:31.999Z,100353.42
2019-05-26T03:40:08.247Z,100357.12
2019-05-26T03:41:42.709Z,100360.02
2019-05-26T03:43:17.642Z,100360.22
2019-05-26T03:44:51.997Z,100352.75
2019-05-26T03:46:26.948Z,100360.92
2019-05-26T03:48:01.336Z,100355.06
2019-05-26T03:49:36.544Z,100359.95
2019-05-26T03:51:11.396Z,100357.50
2019-05-26T03:52:46.332Z,100359.17
2019-05-26T03:54:20.682Z,100354.30
2019-05-26T03:55:55.998Z,100362.09
2019-05-26T03:57:30.385Z,100362.95
2019-05-26T03:59:05.407Z,100360.42
2019-05-26T04:00:39.763Z,100360.48
2019-05-26T04:02:14.703Z,100361.88
2019-05-26T04:03:49.082Z,100349.68
2019-05-26T04:05:24.047Z,100353.16
2019-05-26T04:06:58.408Z,100355.37
2019-05-26T04:08:33.388Z,100357.30
2019-05-26T04:10:08.993Z,100356.70
2019-05-26T04:11:43.940Z,100351.47
2019-05-26T04:13:18.616Z,100358.20
2019-05-26T04:14:53.642Z,100356.34
2019-05-26T04:16:28.360Z,100345.78
2019-05-26T04:18:03.377Z,100346.42
2019-05-26T04:19:37.722Z,100344.12
2019-05-26T04:21:12.729Z,100342.07
2019-05-26T04:22:47.454Z,100340.62
2019-05-26T04:24:22.497Z,100347.92
2019-05-26T04:25:57.002Z,100338.81
2019-05-26T04:27:31.942Z,100337.41
2019-05-26T04:29:06.643Z,100343.62
2019-05-26T04:30:41.794Z,100329.64
2019-05-26T04:32:16.202Z,100334.14
2019-05-26T04:33:51.516Z,100333.28
2019-05-26T04:35:26.176Z,100334.75
2019-05-26T04:37:01.307Z,100333.65
2019-05-26T04:38:36.397Z,100331.82
2019-05-26T04:40:25.775Z,100332.82
2019-05-26T04:41:47.919Z,100332.70
2019-05-26T04:43:22.866Z,100332.39
2019-05-26T04:44:57.238Z,100325.25
2019-05-26T04:46:32.174Z,100330.75
2019-05-26T04:48:06.875Z,100327.31
2019-05-26T04:49:42.187Z,100331.47
2019-05-26T04:51:16.642Z,100324.06
2019-05-26T04:53:05.599Z,100333.59
2019-05-26T04:54:28.473Z,100334.31
2019-05-26T04:56:03.502Z,100337.53
2019-05-26T04:57:38.237Z,100338.48
2019-05-26T04:59:13.260Z,100335.58
2019-05-26T05:00:47.684Z,100341.24
2019-05-26T05:02:22.727Z,100343.13
2019-05-26T05:03:57.110Z,100339.70
2019-05-26T05:05:32.488Z,100338.05
2019-05-26T05:07:07.150Z,100337.78
2019-05-26T05:08:42.400Z,100335.95
2019-05-26T05:10:17.102Z,100336.41
2019-05-26T05:11:52.032Z,100327.50
2019-05-26T05:13:26.427Z,100337.20
2019-05-26T05:15:01.376Z,100327.66
2019-05-26T05:16:36.096Z,100330.50
2019-05-26T05:18:11.262Z,100327.31
2019-05-26T05:19:45.635Z,100322.23
2019-05-26T05:21:20.793Z,100323.45
2019-05-26T05:22:55.258Z,100322.04
2019-05-26T05:24:30.521Z,100328.67
2019-05-26T05:26:05.242Z,100326.05
2019-05-26T05:27:40.245Z,100332.53
2019-05-26T05:29:14.878Z,100331.58
2019-05-26T05:30:49.844Z,100328.84
2019-05-26T05:32:24.545Z,100330.40
2019-05-26T05:33:59.517Z,100329.59
2019-05-26T05:35:33.982Z,100328.16
2019-05-26T05:37:08.914Z,100325.84
2019-05-26T05:38:43.626Z,100323.28
2019-05-26T05:40:19.012Z,100321.42
2019-05-26T05:41:53.446Z,100316.75
2019-05-26T05:43:28.682Z,100314.11
2019-05-26T05:45:03.194Z,100309.25
2019-05-26T05:46:38.127Z,100306.50
2019-05-26T05:48:12.824Z,100309.62
2019-05-26T05:49:48.142Z,100312.33
2019-05-26T05:51:22.491Z,100309.06
2019-05-26T05:52:58.029Z,100302.94
2019-05-26T05:54:33.026Z,100305.46
2019-05-26T05:56:07.977Z,100300.22
2019-05-26T05:57:42.674Z,100295.32
2019-05-26T05:59:17.634Z,100303.24
2019-05-26T06:00:52.302Z,100307.50
2019-05-26T06:02:27.552Z,100299.54
2019-05-26T06:04:02.484Z,100301.61
2019-05-26T06:05:37.747Z,100291.21
2019-05-26T06:07:12.170Z,100303.59
2019-05-26T06:08:47.460Z,100306.39
2019-05-26T06:10:22.359Z,100311.73
2019-05-26T06:11:57.408Z,100306.62
2019-05-26T06:13:31.738Z,100302.25
2019-05-26T06:15:10.371Z,100294.58
2019-05-26T06:16:44.738Z,100295.95
2019-05-26T06:18:20.339Z,100305.70
2019-05-26T06:19:55.595Z,100305.71
2019-05-26T06:21:30.974Z,100299.27
2019-05-26T06:23:06.350Z,100300.92
2019-05-26T06:24:41.329Z,100299.55
2019-05-26T06:26:16.046Z,100297.02
2019-05-26T06:27:50.980Z,100290.08
2019-05-26T06:29:25.354Z,100298.95
2019-05-26T06:31:00.620Z,100304.98
2019-05-26T06:32:35.797Z,100301.41
2019-05-26T06:34:10.790Z,100300.22
2019-05-26T06:35:45.146Z,100295.90
2019-05-26T06:37:20.762Z,100286.70
2019-05-26T06:38:55.558Z,100278.52
2019-05-26T06:40:31.015Z,100280.33
2019-05-26T06:42:06.134Z,100293.42
2019-05-26T06:43:41.823Z,100294.37
2019-05-26T06:45:17.789Z,100292.50
2019-05-26T06:46:53.148Z,100281.73
2019-05-26T06:48:27.526Z,100275.48
2019-05-26T06:50:02.799Z,100271.03
2019-05-26T06:51:37.194Z,100267.87
2019-05-26T06:53:12.751Z,100269.80
2019-05-26T06:54:47.117Z,100275.70
2019-05-26T06:56:22.058Z,100272.05
2019-05-26T06:57:56.751Z,100269.11
2019-05-26T06:59:31.701Z,100268.27
2019-05-26T07:01:06.177Z,100265.96
2019-05-26T07:02:41.371Z,100270.64
2019-05-26T07:04:16.867Z,100272.88
2019-05-26T07:05:51.793Z,100263.52
2019-05-26T07:07:26.164Z,100261.84
2019-05-26T07:09:01.399Z,100269.61
2019-05-26T07:10:35.747Z,100275.91
2019-05-26T07:12:10.710Z,100260.64
2019-05-26T07:13:45.433Z,100265.59
2019-05-26T07:15:21.499Z,100254.22
2019-05-26T07:16:56.378Z,100256.97
2019-05-26T07:18:31.924Z,100263.55
2019-05-26T07:20:07.407Z,100265.06
2019-05-26T07:21:43.180Z,100261.97
2019-05-26T07:23:17.967Z,100262.14
2019-05-26T07:24:53.545Z,100262.34
2019-05-26T07:26:28.564Z,100255.10
2019-05-26T07:28:04.400Z,100251.43
2019-05-26T07:29:39.679Z,100254.01
2019-05-26T07:31:15.230Z,100262.91
2019-05-26T07:32:50.273Z,100259.72
2019-05-26T07:34:26.076Z,100257.91
2019-05-26T07:36:00.843Z,100251.94
2019-05-26T07:37:36.405Z,100248.84
2019-05-26T07:39:10.866Z,100253.41
2019-05-26T07:40:45.914Z,100240.56
2019-05-26T07:42:20.547Z,100237.39
2019-05-26T07:43:55.487Z,100241.66
2019-05-26T07:45:30.082Z,100240.87
2019-05-26T07:47:05.052Z,100237.78
2019-05-26T07:48:39.957Z,100234.70
2019-05-26T07:50:15.050Z,100239.84
2019-05-26T07:51:49.648Z,100235.74
2019-05-26T07:53:24.683Z,100235.81
2019-05-26T07:54:59.432Z,100237.23
2019-05-26T07:56:35.198Z,100225.48
2019-05-26T07:58:10.225Z,100217.40
2019-05-26T07:59:46.627Z,100220.08
2019-05-26T08:01:24.317Z,100223.39
2019-05-26T08:02:59.394Z,100220.02
2019-05-26T08:04:34.160Z,100219.51
2019-05-26T08:06:09.990Z,100224.20
2019-05-26T08:07:44.829Z,100218.47
2019-05-26T08:09:20.400Z,100219.20
2019-05-26T08:10:55.420Z,100227.97
2019-05-26T08:12:31.063Z,100226.20
2019-05-26T08:14:06.428Z,100223.36
2019-05-26T08:15:42.028Z,100217.70
2019-05-26T08:17:16.866Z,100206.35
2019-05-26T08:18:51.866Z,100197.42
2019-05-26T08:20:27.360Z,100195.50
2019-05-26T08:22:02.544Z,100196.52
2019-05-26T08:23:36.974Z,100195.00
2019-05-26T08:25:13.127Z,100199.60
2019-05-26T08:26:47.718Z,100183.17
2019-05-26T08:28:22.681Z,100178.30
2019-05-26T08:29:57.547Z,100185.33
2019-05-26T08:31:32.542Z,100180.33
2019-05-26T08:33:06.898Z,100176.93
2019-05-26T08:34:41.845Z,100179.22
2019-05-26T08:36:16.274Z,100179.46
2019-05-26T08:37:51.497Z,100172.59
2019-05-26T08:39:26.102Z,100173.63
2019-05-26T08:41:01.100Z,100180.70
2019-05-26T08:42:44.191Z,100176.23
2019-05-26T08:44:12.230Z,100174.81
2019-05-26T08:45:47.004Z,100174.75
2019-05-26T08:47:21.933Z,100176.75
2019-05-26T08:48:56.273Z,100180.47
2019-05-26T08:50:34.303Z,100176.92
2019-05-26T08:52:07.930Z,100176.20
2019-05-26T08:53:43.679Z,100175.27
2019-05-26T08:55:18.579Z,100165.09
2019-05-26T08:56:53.584Z,100161.64
2019-05-26T08:58:29.410Z,100159.98
2019-05-26T09:00:05.666Z,100162.22
2019-05-26T09:01:40.354Z,100157.72
2019-05-26T09:03:15.677Z,100152.59
2019-05-26T09:04:50.516Z,100143.30
2019-05-26T09:06:25.548Z,100139.59
2019-05-26T09:07:59.946Z,100136.52
2019-05-26T09:09:34.871Z,100140.80
2019-05-26T09:11:09.350Z,100132.41
2019-05-26T09:12:59.335Z,100128.13
2019-05-26T09:14:20.739Z,100131.81
2019-05-26T09:15:55.752Z,100129.12
2019-05-26T09:17:30.182Z,100126.92
2019-05-26T09:19:05.263Z,100120.47
2019-05-26T09:20:39.630Z,100117.30
2019-05-26T09:22:14.803Z,100124.71
2019-05-26T09:23:49.249Z,100119.09
2019-05-26T09:25:24.543Z,100117.84
2019-05-26T09:26:59.286Z,100110.47
2019-05-26T09:28:34.297Z,100108.91
2019-05-26T09:30:09.236Z,100100.59
2019-05-26T09:31:44.553Z,100104.27
2019-05-26T09:33:19.287Z,100102.84
2019-05-26T09:34:54.223Z,100108.48
2019-05-26T09:36:28.923Z,100102.11
2019-05-26T09:38:03.859Z,100098.28
2019-05-26T09:39:38.290Z,100096.91
2019-05-26T09:41:13.249Z,100091.16
2019-05-26T09:42:47.870Z,100100.60
2019-05-26T09:44:22.838Z,100085.50
2019-05-26T09:45:57.552Z,100083.73
2019-05-26T09:47:32.742Z,100087.13
2019-05-26T09:49:07.492Z,100081.73
2019-05-26T09:50:43.407Z,100091.09
2019-05-26T09:52:18.201Z,100087.41
2019-05-26T09:54:01.593Z,100086.58
2019-05-26T09:55:30.749Z,100079.59
2019-05-26T09:57:06.548Z,100077.02
2019-05-26T09:58:41.378Z,100082.03
2019-05-26T10:00:19.021Z,100085.63
2019-05-26T10:01:53.849Z,100077.94
2019-05-26T10:03:29.776Z,100075.80
2019-05-26T10:05:05.239Z,100068.61
2019-05-26T10:06:41.101Z,100070.02
2019-05-26T10:08:15.896Z,100071.28
2019-05-26T10:09:51.706Z,100066.86
2019-05-26T10:11:26.469Z,100064.25
2019-05-26T10:13:01.458Z,100067.74
2019-05-26T10:14:35.853Z,100062.66
2019-05-26T10:16:10.791Z,100067.61
2019-05-26T10:17:48.762Z,100066.43
2019-05-26T10:19:23.730Z,100067.53
2019-05-26T10:20:58.366Z,100067.81
2019-05-26T10:22:33.370Z,100058.98
2019-05-26T10:24:08.227Z,100060.08
2019-05-26T10:25:43.632Z,100055.52
2019-05-26T10:27:18.601Z,100061.67
2019-05-26T10:28:53.948Z,100052.38
2019-05-26T10:30:28.399Z,100053.50
2019-05-26T10:32:03.387Z,100052.78
2019-05-26T10:33:38.008Z,100051.22
2019-05-26T10:35:13.199Z,100052.27
2019-05-26T10:36:47.618Z,100060.03
2019-05-26T10:38:22.555Z,100057.87
2019-05-26T10:39:57.031Z,100054.77
2019-05-26T10:41:32.246Z,100051.28
2019-05-26T10:43:06.847Z,100047.70
2019-05-26T10:44:42.045Z,100046.03
2019-05-26T10:46:16.432Z,100043.30
2019-05-26T10:47:51.426Z,100046.00
2019-05-26T10:49:26.157Z,100040.98
2019-05-26T10:51:01.345Z,100042.98
2019-05-26T10:52:35.930Z,100028.52
2019-05-26T10:54:11.359Z,100028.69
2019-05-26T10:55:45.783Z,100042.24
2019-05-26T10:57:20.727Z,100028.53
2019-05-26T10:58:55.216Z,100040.73
2019-05-26T11:00:33.449Z,100039.22
2019-05-26T11:02:07.922Z,100030.33
2019-05-26T11:03:43.119Z,100028.58
2019-05-26T11:05:17.991Z,100026.37
2019-05-26T11:06:53.180Z,100013.81
2019-05-26T11:08:27.634Z,100019.44
2019-05-26T11:10:03.146Z,100025.42
2019-05-26T11:11:37.555Z,100016.84
2019-05-26T11:13:12.621Z,100019.21
2019-05-26T11:14:47.528Z,100016.29
2019-05-26T11:16:22.758Z,100009.97
2019-05-26T11:17:57.578Z,100013.41
2019-05-26T11:19:32.521Z,100008.25
2019-05-26T11:21:07.049Z,100018.19
2019-05-26T11:22:42.014Z,100016.84
2019-05-26T11:24:16.383Z,100009.87
2019-05-26T11:25:51.550Z,99998.95
2019-05-26T11:27:25.927Z,100006.84
2019-05-26T11:29:01.228Z,99999.30
2019-05-26T11:30:36.545Z,99993.83
2019-05-26T11:32:12.268Z,100016.31
2019-05-26T11:33:46.786Z,99998.97
2019-05-26T11:35:21.856Z,100002.23
2019-05-26T11:36:56.574Z,99999.68
2019-05-26T11:38:33.650Z,99995.58
2019-05-26T11:40:08.839Z,99981.25
2019-05-26T11:41:43.842Z,99978.55
2019-05-26T11:43:18.185Z,99975.78
2019-05-26T11:44:54.214Z,99976.30
2019-05-26T11:46:28.997Z,99979.84
2019-05-26T11:48:04.579Z,99972.56
2019-05-26T11:49:39.394Z,99961.54
2019-05-26T11:51:14.786Z,99949.03
2019-05-26T11:52:49.625Z,99968.16
2019-05-26T11:54:24.577Z,99956.66
2019-05-26T11:55:59.374Z,99953.30
2019-05-26T11:57:37.041Z,99952.38
2019-05-26T11:59:10.779Z,99946.00
2019-05-26T12:00:46.275Z,99932.69
2019-05-26T12:02:20.799Z,99944.30
2019-05-26T12:03:56.103Z,99940.22
2019-05-26T12:05:30.717Z,99932.86
2019-05-26T12:07:06.111Z,99933.83
2019-05-26T12:08:40.713Z,99935.56
2019-05-26T12:10:16.062Z,99930.92
2019-05-26T12:11:50.411Z,99930.70
2019-05-26T12:13:25.747Z,99916.91
2019-05-26T12:15:00.089Z,99920.17
2019-05-26T12:16:35.280Z,99920.23
2019-05-26T12:18:09.626Z,99915.21
2019-05-26T12:19:44.815Z,99925.16
2019-05-26T12:21:19.182Z,99910.70
2019-05-26T12:22:54.431Z,99905.89
2019-05-26T12:24:28.857Z,99916.08
2019-05-26T12:26:03.804Z,99915.42
2019-05-26T12:27:38.464Z,99911.85
2019-05-26T12:29:13.426Z,99906.48
2019-05-26T12:30:48.074Z,99898.27
2019-05-26T12:32:23.027Z,99897.61
2019-05-26T12:33:57.628Z,99896.39
2019-05-26T12:35:45.968Z,99896.92
2019-05-26T12:37:20.897Z,99907.34
2019-05-26T12:38:55.266Z,99896.59
2019-05-26T12:40:30.203Z,99902.20
2019-05-26T12:42:04.807Z,99902.88
2019-05-26T12:43:40.263Z,99894.27
2019-05-26T12:45:15.623Z,99898.78
2019-05-26T12:46:50.803Z,99899.56
2019-05-26T12:48:25.382Z,99892.70
2019-05-26T12:50:00.306Z,99897.34
2019-05-26T12:51:34.699Z,99897.23
2019-05-26T12:53:09.798Z,99897.16
2019-05-26T12:54:44.261Z,99894.78
2019-05-26T12:56:19.458Z,99889.91
2019-05-26T12:57:53.890Z,99872.63
2019-05-26T12:59:28.943Z,99889.85
2019-05-26T13:01:03.703Z,99888.44
2019-05-26T13:02:38.634Z,99880.63
2019-05-26T13:04:12.983Z,99874.51
2019-05-26T13:05:48.022Z,99874.36
2019-05-26T13:07:22.423Z,99867.41
2019-05-26T13:08:57.349Z,99870.47
2019-05-26T13:10:32.140Z,99861.95
2019-05-26T13:12:07.173Z,99861.55
2019-05-26T13:13:41.585Z,99860.97
2019-05-26T13:15:16.806Z,99852.05
2019-05-26T13:16:51.734Z,99860.30
2019-05-26T13:18:26.956Z,99855.42
2019-05-26T13:20:01.818Z,99861.55
2019-05-26T13:21:36.882Z,99856.36
2019-05-26T13:23:11.488Z,99853.69
2019-05-26T13:24:46.461Z,99863.08
2019-05-26T13:26:21.187Z,99858.30
2019-05-26T13:27:56.954Z,99867.13
2019-05-26T13:29:31.721Z,99867.23
2019-05-26T13:31:07.361Z,99860.32
2019-05-26T13:32:42.044Z,99862.20
2019-05-26T13:34:17.273Z,99870.48
2019-05-26T13:35:51.954Z,99867.36
2019-05-26T13:37:27.160Z,99857.38
2019-05-26T13:39:01.513Z,99857.82
2019-05-26T13:40:36.694Z,99861.87
2019-05-26T13:42:11.109Z,99854.75
2019-05-26T13:43:46.038Z,99843.81
2019-05-26T13:45:23.337Z,99836.81
2019-05-26T13:46:58.736Z,99851.34
2019-05-26T13:48:33.145Z,99837.89
2019-05-26T13:50:08.999Z,99837.61
2019-05-26T13:51:43.598Z,99846.71
2019-05-26T13:53:18.638Z,99844.48
2019-05-26T13:54:53.059Z,99844.94
2019-05-26T13:56:28.434Z,99845.72
2019-05-26T13:58:03.674Z,99846.03
2019-05-26T13:59:39.030Z,99840.75
2019-05-26T14:01:14.018Z,99834.39
2019-05-26T14:02:50.356Z,99850.74
2019-05-26T14:04:25.570Z,99841.16
2019-05-26T14:06:00.945Z,99839.64
2019-05-26T14:07:36.380Z,99838.17
2019-05-26T14:09:12.675Z,99841.52
2019-05-26T14:10:47.725Z,99840.70
2019-05-26T14:12:23.362Z,99841.56
2019-05-26T14:13:59.350Z,99838.99
2019-05-26T14:15:38.512Z,99843.36
2019-05-26T14:17:12.173Z,99839.77
2019-05-26T14:18:47.671Z,99840.14
2019-05-26T14:20:26.110Z,99834.21
2019-05-26T14:22:01.063Z,99839.27
2019-05-26T14:23:35.890Z,99836.59
2019-05-26T14:25:11.082Z,99835.66
2019-05-26T14:26:45.445Z,99843.05
2019-05-26T14:28:20.380Z,99833.98
2019-05-26T14:29:54.825Z,99834.98
2019-05-26T14:31:29.782Z,99829.90
2019-05-26T14:33:04.768Z,99834.05
2019-05-26T14:34:39.726Z,99835.70
2019-05-26T14:36:14.910Z,99833.61
2019-05-26T14:37:49.867Z,99835.02
2019-05-26T14:39:24.302Z,99825.38
2019-05-26T14:40:59.511Z,99839.44
2019-05-26T14:42:33.859Z,99831.99
2019-05-26T14:44:08.854Z,99833.42
2019-05-26T14:45:52.892Z,99831.46
2019-05-26T14:47:20.357Z,99831.21
2019-05-26T14:48:54.758Z,99827.05
2019-05-26T14:50:30.036Z,99821.32
2019-05-26T14:52:04.739Z,99831.16
2019-05-26T14:53:39.950Z,99830.31
2019-05-26T14:55:14.658Z,99833.73
2019-05-26T14:56:49.849Z,99826.02
2019-05-26T14:58:24.206Z,99820.97
2019-05-26T14:59:59.367Z,99821.21
2019-05-26T15:01:33.974Z,99817.23
2019-05-26T15:03:08.929Z,99813.67
2019-05-26T15:04:43.568Z,99815.86
2019-05-26T15:06:19.178Z,99811.09
2019-05-26T15:07:54.411Z,99810.64
2019-05-26T15:09:29.768Z,99811.28
2019-05-26T15:11:04.875Z,99806.16
2019-05-26T15:12:40.294Z,99807.47
2019-05-26T15:14:15.260Z,99804.16
2019-05-26T15:15:50.614Z,99804.16
2019-05-26T15:17:25.870Z,99805.48
2019-05-26T15:19:01.219Z,99806.14
2019-05-26T15:20:36.425Z,99813.66
2019-05-26T15:22:11.776Z,99809.42
2019-05-26T15:24:12.274Z,99808.33
2019-05-26T15:25:47.170Z,99805.64
2019-05-26T15:27:23.263Z,99803.75
2019-05-26T15:28:58.204Z,99808.32
2019-05-26T15:30:34.796Z,99816.52
2019-05-26T15:32:10.217Z,99813.36
2019-05-26T15:33:45.940Z,99816.80
2019-05-26T15:35:20.851Z,99817.98
2019-05-26T15:36:56.854Z,99816.47
2019-05-26T15:38:42.298Z,99812.24
2019-05-26T15:40:10.822Z,99814.34
2019-05-26T15:41:45.585Z,99803.19
2019-05-26T15:43:21.682Z,99805.51
2019-05-26T15:44:57.302Z,99801.61
2019-05-26T15:46:33.385Z,99810.21
2019-05-26T15:48:08.368Z,99813.67
2019-05-26T15:49:43.899Z,99815.59
2019-05-26T15:51:19.271Z,99810.36
2019-05-26T15:52:55.862Z,99805.45
2019-05-26T15:54:31.841Z,99807.28
2019-05-26T15:56:07.630Z,99807.73
2019-05-26T15:57:42.769Z,99801.55
2019-05-26T15:59:18.323Z,99805.17
2019-05-26T16:00:53.429Z,99805.20
2019-05-26T16:02:29.472Z,99805.11
2019-05-26T16:04:04.937Z,99803.98
2019-05-26T16:05:41.177Z,99801.73
2019-05-26T16:07:16.214Z,99812.73
2019-05-26T16:08:51.790Z,99807.82
2019-05-26T16:10:26.904Z,99807.00
2019-05-26T16:12:02.937Z,99809.47
2019-05-26T16:13:38.691Z,99810.14
2019-05-26T16:15:14.920Z,99810.80
2019-05-26T16:16:51.425Z,99808.16
2019-05-26T16:18:27.193Z,99812.83
2019-05-26T16:20:01.989Z,99816.31
2019-05-26T16:21:37.526Z,99819.18
2019-05-26T16:23:12.608Z,99814.38
2019-05-26T16:24:48.795Z,99807.53
2019-05-26T16:26:23.741Z,99813.06
2019-05-26T16:27:59.643Z,99811.58
2019-05-26T16:29:34.651Z,99814.50
2019-05-26T16:31:12.297Z,99815.49
2019-05-26T16:32:46.741Z,99813.88
2019-05-26T16:34:22.288Z,99815.11
2019-05-26T16:35:57.056Z,99817.41
2019-05-26T16:37:32.631Z,99810.57
2019-05-26T16:39:09.150Z,99812.48
2019-05-26T16:40:44.968Z,99808.27
2019-05-26T16:42:19.891Z,99811.69
2019-05-26T16:43:55.477Z,99810.42
2019-05-26T16:45:30.491Z,99809.65
2019-05-26T16:47:06.245Z,99806.72
2019-05-26T16:48:41.111Z,99799.34
2019-05-26T16:50:16.735Z,99793.86
2019-05-26T16:51:51.756Z,99797.59
2019-05-26T16:53:27.351Z,99798.27
2019-05-26T16:55:02.186Z,99804.09
2019-05-26T16:56:39.099Z,99798.94
2019-05-26T16:58:16.950Z,99802.05
2019-05-26T16:59:52.840Z,99809.25
2019-05-26T17:01:28.076Z,99807.88
2019-05-26T17:03:04.139Z,99814.42
2019-05-26T17:04:39.025Z,99804.27
2019-05-26T17:06:14.960Z,99807.33
2019-05-26T17:07:50.605Z,99799.95
2019-05-26T17:09:26.530Z,99796.98
2019-05-26T17:11:01.833Z,99798.92
2019-05-26T17:12:37.665Z,99804.41
2019-05-26T17:14:12.463Z,99806.68
2019-05-26T17:15:48.024Z,99803.85
2019-05-26T17:17:22.785Z,99808.35
2019-05-26T17:18:58.404Z,99803.96
2019-05-26T17:20:33.223Z,99802.19
2019-05-26T17:22:08.961Z,99806.17
2019-05-26T17:23:43.736Z,99804.28
2019-05-26T17:25:19.626Z,99805.64
2019-05-26T17:26:54.667Z,99802.67
2019-05-26T17:28:30.471Z,99805.19
2019-05-26T17:30:06.082Z,99802.71
2019-05-26T17:31:41.629Z,99807.99
2019-05-26T17:33:16.086Z,99799.20
2019-05-26T17:34:51.013Z,99795.84
2019-05-26T17:36:25.621Z,99799.27
2019-05-26T17:38:00.992Z,99800.03
2019-05-26T17:39:35.956Z,99797.95
2019-05-26T17:41:11.348Z,99799.17
2019-05-26T17:42:46.598Z,99793.69
2019-05-26T17:44:21.977Z,99794.28
2019-05-26T17:45:56.930Z,99796.30
2019-05-26T17:47:32.280Z,99798.66
2019-05-26T17:49:07.415Z,99792.18
2019-05-26T17:50:43.039Z,99798.31
2019-05-26T17:52:18.018Z,99801.61
2019-05-26T17:53:54.369Z,99799.95
2019-05-26T17:55:29.418Z,99791.89
2019-05-26T17:57:05.104Z,99798.00
2019-05-26T17:58:40.661Z,99793.58
2019-05-26T18:00:16.937Z,99787.33
2019-05-26T18:01:52.133Z,99786.20
2019-05-26T18:03:27.723Z,99790.14
2019-05-26T18:05:02.980Z,99790.01
2019-05-26T18:06:38.359Z,99790.00
2019-05-26T18:08:13.580Z,99788.35
2019-05-26T18:09:49.218Z,99788.84
2019-05-26T18:11:24.253Z,99788.69
2019-05-26T18:13:00.038Z,99789.48
2019-05-26T18:14:35.216Z,99794.91
2019-05-26T18:16:11.055Z,99792.25
2019-05-26T18:17:47.679Z,99788.13